Terminal Aerodrome Forecast
Issued by NWS St Louis, MO

Home | Current Version | Previous Version | Text Only | Print | Product List | Glossary On
Versions: 1 2 3 4 5 6 7 8 9 10 11 12 13 14 15 16 17 18 19 20 21 22 23 24 25 26
000
FTUS43 KLSX 041725
TAFSTL
TAF
KSTL 041725Z 0418/0524 VRB04KT P6SM FEW050 BKN250
     FM042000 VRB04KT P6SM VCTS SCT040CB BKN250
     FM050100 12005KT P6SM SCT070 BKN250
     FM050800 10005KT 6SM SHRA OVC040
     FM051400 11005KT 6SM SHRA VCTS OVC040CB=

USA.gov is the U.S. government's official web portal to all federal, state and local government web resources and services.